Crystal Falls, MI

7:30 PM CDT on August 01, 2014 (GMT -0500)
Spread Eagle Skies (KWIFLORE2) Elev 1224 ft | 45.89 °N, 88.17 °W | Change Station

Current weather conditions updated 13 seconds ago

Partly Cloudy
Partly Cloudy
72.0 °F
Feels Like 76 °F
N
0.0
Wind Variable Wind from ENE
Gusts 0.0 mph

Tomorrow is forecast to be nearly the same temperature as today. Slight chance of a thunderstorm tomorrow night.

Today
High -- | Low -- °F
--% Chance of Precip.
Yesterday
High -- | Low -- °F
Precip. -- in
5:35 AM 8:23 PM
Waxing Crescent, 30% visible
Pressure 30.06 in
Visibility 10.0 miles
Clouds Few 6500 ft
Heat Index 76 °F
Dew Point 57 °F
Humidity 59%
Rainfall 0.00 in
Snow Depth Not available.
UV 1 out of 12
Pollen 7.30 out of 12
Air Quality Not available.
Flu Activity Not available.
METAR KIMT 012354Z AUTO 32004KT 10SM FEW065 24/11 A3006 RMK AO2 SLP179 T02440106 10278 20244 53004 TSNO

More Conditions Fewer Conditions

Pressure 30.06 in
Visibility 10.0 miles
Clouds Few 6500 ft
Heat Index 76 °F
Dew Point 57 °F
Humidity 59%
Rainfall 0.00 in
Snow Depth Not available.
UV 1 out of 12
Pollen 7.30 out of 12
Air Quality Not available.
Flu Activity Not available.
METAR KIMT 012354Z AUTO 32004KT 10SM FEW065 24/11 A3006 RMK AO2 SLP179 T02440106 10278 20244 53004 TSNO

More Conditions Fewer Conditions

10-Day Weather Forecast

Almanac

Astronomy

Aug. 01, 2014 Rise Set
Actual Time 5:35 AM CDT 8:23 PM CDT
Civil Twilight 5:00 AM CDT 8:57 PM CDT
Nautical Twilight 4:16 AM CDT 9:41 PM CDT
Astronomical Twilight 3:24 AM CDT 10:32 PM CDT
Moon 11:20 AM CDT (8/1) 10:45 PM CDT (8/1)
Length of Visible Light 15h 56m
Length of Day
14h 47m
Tomorrow will be 2m 32s shorter.
Waxing Crescent, 30% of the Moon is Illuminated
Today
Waxing Crescent
Aug 3
First Quarter
Aug 10
Full
Aug 17
Last Quarter
Aug 25
New

Today's Extremes

State Highs State Lows

Community

WunderPhotos

Upload Photos

1,739,763 photos uploaded!

Nearby

Snow Depth

Station Depth Elevation
No new snow has been reported.

Earthquake Activity

City Distance Mag. Time & Date
No recent earthquake activity has been reported nearby.
Minimum magnitude displayed is 2.5.

Coastal Water Temperatures

Place Temperature
No Stations Reporting

Nearby Weather Stations

Station Location Temp. Heat Index Dew Point Humidity Wind Precip. Elev Updated Type
Spread Eagle Skies, Florence, WI 72.0 °F 76 °F 57 °F 59% ENE  at  0.0 mph 0.00 in / hr 1224 ft 7:30 PM CDT Rapid Fire

Show More Stations Show Fewer Stations